createdAt,value
2024-05-09T00:00:35.304Z,33.97
2024-05-09T00:01:33.692Z,33.94
2024-05-09T00:02:36.594Z,33.96
2024-05-09T00:03:41.378Z,33.94
2024-05-09T00:04:44.264Z,33.96
2024-05-09T00:05:48.160Z,33.93
2024-05-09T00:06:51.119Z,33.92
2024-05-09T00:07:54.359Z,33.94
2024-05-09T00:08:57.530Z,33.87
2024-05-09T00:10:00.349Z,33.87
2024-05-09T00:11:04.274Z,33.96
2024-05-09T00:12:07.215Z,33.94
2024-05-09T00:13:11.388Z,33.92
2024-05-09T00:14:14.191Z,33.88
2024-05-09T00:15:16.844Z,33.66
2024-05-09T00:16:20.277Z,33.66
2024-05-09T00:17:23.287Z,33.84
2024-05-09T00:18:26.371Z,33.82
2024-05-09T00:19:29.513Z,33.82
2024-05-09T00:20:38.019Z,33.78
2024-05-09T00:21:44.886Z,33.80
2024-05-09T00:22:49.204Z,33.82
2024-05-09T00:23:52.386Z,33.77
2024-05-09T00:24:55.103Z,33.76
2024-05-09T00:25:57.930Z,33.74
2024-05-09T00:27:00.926Z,33.77
2024-05-09T00:28:07.113Z,33.81
2024-05-09T00:29:10.903Z,33.84
2024-05-09T00:30:21.022Z,33.82
2024-05-09T00:31:18.279Z,33.88
2024-05-09T00:32:21.190Z,33.84
2024-05-09T00:33:24.264Z,33.88
2024-05-09T00:34:27.862Z,33.85
2024-05-09T00:35:30.786Z,33.87
2024-05-09T00:36:33.591Z,33.84
2024-05-09T00:37:36.597Z,33.88
2024-05-09T00:38:39.588Z,33.92
2024-05-09T00:39:42.283Z,33.90
2024-05-09T00:40:45.807Z,33.93
2024-05-09T00:41:48.829Z,33.93
2024-05-09T00:42:51.695Z,33.90
2024-05-09T00:43:55.744Z,33.95
2024-05-09T00:44:58.322Z,33.95
2024-05-09T00:46:01.424Z,33.90
2024-05-09T00:47:04.207Z,33.90
2024-05-09T00:48:08.845Z,33.92
2024-05-09T00:49:11.940Z,33.89
2024-05-09T00:50:19.302Z,33.92
2024-05-09T00:51:20.158Z,33.90
2024-05-09T00:52:23.421Z,33.90
2024-05-09T00:53:26.698Z,33.89
2024-05-09T00:54:29.364Z,33.89
2024-05-09T00:55:35.752Z,33.90
2024-05-09T00:56:38.616Z,33.89
2024-05-09T00:57:42.966Z,33.90
2024-05-09T00:58:47.207Z,33.89
2024-05-09T00:59:50.614Z,33.88
2024-05-09T01:00:54.708Z,33.93
2024-05-09T01:01:58.039Z,33.94
2024-05-09T01:03:01.605Z,33.93
2024-05-09T01:04:05.019Z,33.91
2024-05-09T01:05:07.733Z,33.90
2024-05-09T01:06:11.638Z,33.91
2024-05-09T01:07:14.406Z,33.89
2024-05-09T01:08:17.310Z,33.88
2024-05-09T01:09:20.615Z,33.88
2024-05-09T01:10:32.195Z,33.89
2024-05-09T01:11:35.067Z,33.93
2024-05-09T01:12:38.198Z,33.97
2024-05-09T01:13:40.809Z,33.95
2024-05-09T01:14:43.577Z,33.95
2024-05-09T01:15:47.434Z,33.97
2024-05-09T01:16:51.438Z,33.96
2024-05-09T01:17:55.962Z,33.96
2024-05-09T01:18:59.146Z,33.96
2024-05-09T01:20:02.321Z,33.94
2024-05-09T01:21:07.203Z,33.97
2024-05-09T01:22:09.916Z,33.97
2024-05-09T01:23:15.143Z,33.97
2024-05-09T01:24:17.964Z,33.95
2024-05-09T01:25:22.510Z,33.95
2024-05-09T01:26:25.302Z,33.96
2024-05-09T01:27:30.051Z,34.00
2024-05-09T01:28:32.932Z,33.97
2024-05-09T01:29:35.920Z,33.98
2024-05-09T01:30:39.802Z,33.99
2024-05-09T01:31:45.387Z,33.98
2024-05-09T01:32:48.272Z,34.01
2024-05-09T01:33:51.965Z,34.02
2024-05-09T01:34:55.003Z,34.02
2024-05-09T01:35:58.050Z,34.02
2024-05-09T01:37:01.141Z,34.03
2024-05-09T01:38:04.464Z,34.04
2024-05-09T01:39:08.222Z,34.04
2024-05-09T01:40:15.300Z,34.07
2024-05-09T01:41:16.551Z,34.08
2024-05-09T01:42:19.116Z,34.03
2024-05-09T01:43:22.081Z,34.07
2024-05-09T01:44:25.552Z,34.08
2024-05-09T01:45:28.126Z,34.07
2024-05-09T01:46:30.967Z,34.08
2024-05-09T01:47:33.835Z,34.08
2024-05-09T01:48:36.876Z,34.07
2024-05-09T01:49:39.729Z,34.08
2024-05-09T01:50:43.368Z,34.06
2024-05-09T01:51:46.375Z,34.07
2024-05-09T01:52:49.121Z,34.08
2024-05-09T01:53:53.888Z,34.08
2024-05-09T01:54:56.591Z,34.09
2024-05-09T01:55:59.406Z,34.09
2024-05-09T01:57:02.402Z,34.08
2024-05-09T01:58:06.455Z,34.09
2024-05-09T01:59:10.040Z,34.11
2024-05-09T02:00:22.123Z,34.06
2024-05-09T02:01:19.058Z,34.09
2024-05-09T02:02:22.019Z,34.08
2024-05-09T02:03:24.839Z,34.06
2024-05-09T02:04:27.919Z,34.06
2024-05-09T02:05:30.847Z,34.06
2024-05-09T02:06:41.712Z,34.09
2024-05-09T02:07:44.658Z,34.08
2024-05-09T02:08:47.594Z,34.06
2024-05-09T02:09:53.982Z,34.08
2024-05-09T02:10:57.115Z,34.09
2024-05-09T02:12:01.206Z,34.09
2024-05-09T02:13:06.970Z,34.14
2024-05-09T02:14:10.767Z,34.10
2024-05-09T02:15:14.617Z,34.11
2024-05-09T02:16:17.315Z,34.12
2024-05-09T02:17:20.051Z,34.01
2024-05-09T02:18:23.681Z,34.01
2024-05-09T02:19:27.932Z,34.15
2024-05-09T02:20:36.116Z,34.12
2024-05-09T02:21:36.301Z,34.12
2024-05-09T02:22:38.968Z,34.17
2024-05-09T02:23:41.631Z,34.17
2024-05-09T02:24:44.342Z,34.20
2024-05-09T02:25:47.100Z,34.20
2024-05-09T02:26:50.015Z,34.22
2024-05-09T02:27:52.648Z,34.42
2024-05-09T02:28:55.446Z,34.58
2024-05-09T02:29:58.245Z,34.77
2024-05-09T02:31:01.300Z,34.90
2024-05-09T02:32:05.189Z,34.99
2024-05-09T02:33:09.884Z,35.00
2024-05-09T02:34:13.411Z,35.04
2024-05-09T02:35:16.362Z,35.04
2024-05-09T02:36:19.636Z,35.00
2024-05-09T02:37:23.352Z,35.05
2024-05-09T02:38:26.821Z,35.12
2024-05-09T02:39:30.465Z,35.19
2024-05-09T02:40:37.338Z,35.36
2024-05-09T02:41:38.116Z,35.43
2024-05-09T02:42:41.118Z,35.44
2024-05-09T02:43:44.386Z,35.46
2024-05-09T02:44:47.903Z,35.54
2024-05-09T02:45:50.658Z,35.60
2024-05-09T02:46:54.902Z,35.64
2024-05-09T02:47:58.020Z,35.64
2024-05-09T02:49:01.914Z,35.74
2024-05-09T02:50:08.099Z,35.79
2024-05-09T02:51:11.747Z,35.84
2024-05-09T02:52:17.332Z,35.87
2024-05-09T02:53:20.013Z,35.92
2024-05-09T02:54:22.675Z,35.94
2024-05-09T02:55:28.045Z,35.95
2024-05-09T02:56:31.235Z,35.98
2024-05-09T02:57:33.796Z,36.00
2024-05-09T02:58:36.761Z,36.03
2024-05-09T02:59:40.008Z,36.03
2024-05-09T03:00:43.266Z,36.03
2024-05-09T03:01:47.063Z,36.05
2024-05-09T03:02:49.954Z,36.09
2024-05-09T03:03:53.723Z,36.09
2024-05-09T03:04:56.530Z,36.11
2024-05-09T03:05:59.110Z,36.12
2024-05-09T03:07:02.008Z,36.16
2024-05-09T03:08:05.761Z,36.11
2024-05-09T03:09:09.756Z,36.14
2024-05-09T03:10:21.936Z,36.14
2024-05-09T03:11:25.731Z,36.10
2024-05-09T03:12:28.634Z,36.09
2024-05-09T03:13:31.301Z,36.11
2024-05-09T03:14:33.821Z,36.08
2024-05-09T03:15:36.402Z,36.09
2024-05-09T03:16:39.363Z,36.06
2024-05-09T03:17:42.238Z,36.05
2024-05-09T03:18:45.215Z,36.04
2024-05-09T03:19:49.237Z,36.00
2024-05-09T03:20:53.288Z,35.95
2024-05-09T03:21:56.059Z,35.95
2024-05-09T03:22:58.726Z,35.98
2024-05-09T03:24:01.369Z,36.00
2024-05-09T03:25:05.408Z,35.99
2024-05-09T03:26:14.542Z,36.04
2024-05-09T03:27:19.797Z,36.15
2024-05-09T03:28:22.680Z,36.15
2024-05-09T03:29:25.680Z,36.15
2024-05-09T03:30:38.366Z,36.15
2024-05-09T03:31:34.091Z,36.15
2024-05-09T03:32:37.590Z,36.20
2024-05-09T03:33:41.241Z,36.24
2024-05-09T03:34:44.150Z,36.26
2024-05-09T03:35:47.528Z,36.32
2024-05-09T03:36:50.867Z,36.32
2024-05-09T03:37:54.523Z,36.29
2024-05-09T03:38:58.249Z,36.32
2024-05-09T03:40:02.087Z,36.25
2024-05-09T03:41:05.543Z,36.21
2024-05-09T03:42:08.757Z,36.14
2024-05-09T03:43:12.756Z,36.07
2024-05-09T03:44:15.487Z,36.01
2024-05-09T03:45:18.187Z,35.95
2024-05-09T03:46:21.366Z,35.91
2024-05-09T03:47:24.330Z,35.85
2024-05-09T03:48:27.608Z,35.80
2024-05-09T03:49:30.561Z,35.75
2024-05-09T03:50:35.987Z,35.77
2024-05-09T03:51:38.924Z,35.71
2024-05-09T03:52:42.281Z,35.73
2024-05-09T03:53:46.805Z,35.77
2024-05-09T03:54:50.200Z,35.78
2024-05-09T03:55:53.123Z,35.78
2024-05-09T03:56:57.707Z,35.79
2024-05-09T03:58:00.866Z,35.76
2024-05-09T03:59:04.525Z,35.84
2024-05-09T04:00:17.673Z,35.80
2024-05-09T04:01:18.535Z,35.75
2024-05-09T04:02:21.630Z,35.76
2024-05-09T04:03:25.016Z,35.69
2024-05-09T04:04:28.277Z,35.25
2024-05-09T04:05:32.194Z,35.15
2024-05-09T04:06:35.240Z,35.01
2024-05-09T04:07:37.969Z,35.02
2024-05-09T04:08:40.583Z,35.00
2024-05-09T04:09:44.936Z,34.77
2024-05-09T04:10:49.331Z,34.84
2024-05-09T04:11:52.450Z,34.79
2024-05-09T04:12:56.318Z,34.34
2024-05-09T04:14:01.020Z,33.94
2024-05-09T04:15:04.068Z,34.06
2024-05-09T04:16:09.372Z,34.36
2024-05-09T04:17:12.044Z,34.60
2024-05-09T04:18:17.036Z,33.80
2024-05-09T04:19:20.109Z,34.03
2024-05-09T04:20:33.675Z,35.17
2024-05-09T04:21:29.355Z,35.26
2024-05-09T04:22:32.096Z,36.81
2024-05-09T04:23:35.061Z,36.45
2024-05-09T04:24:39.657Z,36.66
2024-05-09T04:25:43.582Z,36.68
2024-05-09T04:26:47.356Z,36.73
2024-05-09T04:27:52.203Z,36.67
2024-05-09T04:29:01.516Z,36.72
2024-05-09T04:30:07.885Z,36.70
2024-05-09T04:31:09.790Z,36.59
2024-05-09T04:32:13.114Z,36.42
2024-05-09T04:33:18.647Z,36.38
2024-05-09T04:34:21.576Z,36.25
2024-05-09T04:35:24.930Z,36.25
2024-05-09T04:36:28.507Z,36.43
2024-05-09T04:37:32.150Z,36.55
2024-05-09T04:38:36.266Z,36.46
2024-05-09T04:39:39.323Z,36.46
2024-05-09T04:40:42.929Z,36.46
2024-05-09T04:41:45.715Z,36.44
2024-05-09T04:42:48.420Z,36.62
2024-05-09T04:43:51.197Z,36.58
2024-05-09T04:44:58.289Z,36.90
2024-05-09T04:46:01.206Z,36.89
2024-05-09T04:47:05.130Z,36.89
2024-05-09T04:48:08.969Z,37.15
2024-05-09T04:49:12.096Z,37.39
2024-05-09T04:50:24.642Z,37.36
2024-05-09T04:51:21.076Z,37.52
2024-05-09T04:52:23.900Z,37.63
2024-05-09T04:53:27.612Z,37.80
2024-05-09T04:54:36.072Z,38.00
2024-05-09T04:55:36.554Z,38.40
2024-05-09T04:56:39.833Z,38.42
2024-05-09T04:57:43.036Z,38.70
2024-05-09T04:58:47.092Z,38.97
2024-05-09T04:59:50.340Z,38.85
2024-05-09T05:00:55.199Z,38.65
2024-05-09T05:02:00.344Z,38.01
2024-05-09T05:03:07.546Z,37.89
2024-05-09T05:04:10.837Z,37.83
2024-05-09T05:05:13.676Z,37.74
2024-05-09T05:06:16.519Z,37.74
2024-05-09T05:07:20.867Z,37.71
2024-05-09T05:08:24.386Z,37.61
2024-05-09T05:09:28.279Z,37.56
2024-05-09T05:10:36.066Z,37.50
2024-05-09T05:11:36.210Z,37.50
2024-05-09T05:12:57.551Z,37.45
2024-05-09T05:14:00.579Z,37.42
2024-05-09T05:15:03.748Z,37.39
2024-05-09T05:16:07.347Z,37.32
2024-05-09T05:17:10.796Z,37.29
2024-05-09T05:18:15.461Z,37.26
2024-05-09T05:19:18.643Z,37.25
2024-05-09T05:20:27.800Z,37.16
2024-05-09T05:21:26.524Z,37.10
2024-05-09T05:22:29.427Z,37.00
2024-05-09T05:23:33.015Z,36.92
2024-05-09T05:24:35.861Z,36.82
2024-05-09T05:25:39.552Z,36.78
2024-05-09T05:26:42.655Z,36.71
2024-05-09T05:27:45.485Z,36.74
2024-05-09T05:28:48.210Z,36.71
2024-05-09T05:29:50.996Z,36.70
2024-05-09T05:30:54.874Z,36.70
2024-05-09T05:31:58.639Z,36.75
2024-05-09T05:33:02.840Z,36.76
2024-05-09T05:34:05.588Z,37.00
2024-05-09T05:35:08.685Z,37.02
2024-05-09T05:36:11.317Z,37.04
2024-05-09T05:37:14.349Z,37.20
2024-05-09T05:38:17.023Z,37.20
2024-05-09T05:39:19.664Z,37.09
2024-05-09T05:40:32.115Z,37.11
2024-05-09T05:41:27.580Z,37.07
2024-05-09T05:42:31.010Z,37.04
2024-05-09T05:43:33.655Z,37.01
2024-05-09T05:44:36.884Z,36.99
2024-05-09T05:45:40.212Z,37.03
2024-05-09T05:46:43.896Z,36.81
2024-05-09T05:47:47.823Z,36.81
2024-05-09T05:48:50.707Z,36.84
2024-05-09T05:49:53.715Z,36.82
2024-05-09T05:51:02.689Z,36.77
2024-05-09T05:52:05.570Z,36.75
2024-05-09T05:53:09.865Z,36.69
2024-05-09T05:54:13.596Z,36.69
2024-05-09T05:55:16.929Z,36.65
2024-05-09T05:56:19.982Z,36.60
2024-05-09T05:57:24.205Z,36.55
2024-05-09T05:58:28.164Z,36.52
2024-05-09T05:59:31.296Z,36.48
2024-05-09T06:00:39.199Z,36.46
2024-05-09T06:01:40.715Z,36.43
2024-05-09T06:02:43.570Z,36.39
2024-05-09T06:03:46.827Z,36.37
2024-05-09T06:04:50.868Z,36.35
2024-05-09T06:05:54.754Z,36.27
2024-05-09T06:06:57.713Z,36.25
2024-05-09T06:08:00.452Z,36.21
2024-05-09T06:09:03.602Z,36.22
2024-05-09T06:10:14.238Z,36.21
2024-05-09T06:11:12.241Z,36.18
2024-05-09T06:12:15.075Z,36.13
2024-05-09T06:13:20.246Z,36.10
2024-05-09T06:14:23.114Z,36.12
2024-05-09T06:15:26.165Z,36.10
2024-05-09T06:16:29.806Z,36.09
2024-05-09T06:17:32.784Z,36.05
2024-05-09T06:18:36.292Z,35.99
2024-05-09T06:19:39.178Z,35.98
2024-05-09T06:20:43.801Z,35.98
2024-05-09T06:21:46.937Z,35.91
2024-05-09T06:22:49.986Z,35.90
2024-05-09T06:23:54.079Z,35.91
2024-05-09T06:24:56.965Z,35.91
2024-05-09T06:26:00.519Z,35.96
2024-05-09T06:27:05.461Z,35.94
2024-05-09T06:28:09.475Z,35.94
2024-05-09T06:29:13.649Z,35.97
2024-05-09T06:30:25.494Z,35.94
2024-05-09T06:31:23.891Z,35.96
2024-05-09T06:32:26.777Z,35.96
2024-05-09T06:33:30.757Z,35.93
2024-05-09T06:34:33.749Z,35.95
2024-05-09T06:35:37.649Z,35.92
2024-05-09T06:36:41.183Z,35.88
2024-05-09T06:37:43.919Z,35.84
2024-05-09T06:38:47.520Z,35.85
2024-05-09T06:39:50.558Z,35.86
2024-05-09T06:40:56.731Z,35.86
2024-05-09T06:41:59.284Z,35.82
2024-05-09T06:43:01.841Z,35.82
2024-05-09T06:44:04.914Z,35.81
2024-05-09T06:45:07.747Z,35.80
2024-05-09T06:46:11.200Z,35.79
2024-05-09T06:47:14.875Z,35.79
2024-05-09T06:48:19.034Z,35.76
2024-05-09T06:49:22.398Z,35.76
2024-05-09T06:50:28.704Z,35.75
2024-05-09T06:51:30.711Z,35.72
2024-05-09T06:52:33.454Z,35.69
2024-05-09T06:53:38.390Z,35.66
2024-05-09T06:54:41.147Z,35.64
2024-05-09T06:55:44.090Z,35.63
2024-05-09T06:56:46.832Z,35.63
2024-05-09T06:57:49.559Z,35.63
2024-05-09T06:58:54.952Z,35.61
2024-05-09T06:59:59.994Z,35.61
2024-05-09T07:01:04.777Z,35.59
2024-05-09T07:02:07.602Z,35.59
2024-05-09T07:03:15.285Z,35.59
2024-05-09T07:04:17.763Z,35.55
2024-05-09T07:05:20.854Z,35.53
2024-05-09T07:06:24.307Z,35.48
2024-05-09T07:07:27.490Z,35.48
2024-05-09T07:08:31.181Z,35.50
2024-05-09T07:09:33.933Z,35.47
2024-05-09T07:10:37.695Z,35.46
2024-05-09T07:11:40.817Z,35.44
2024-05-09T07:12:43.805Z,35.44
2024-05-09T07:13:46.437Z,35.46
2024-05-09T07:14:49.376Z,35.50
2024-05-09T07:15:52.087Z,35.52
2024-05-09T07:16:55.563Z,35.49
2024-05-09T07:17:58.864Z,35.48
2024-05-09T07:19:02.950Z,35.49
2024-05-09T07:20:09.014Z,35.49
2024-05-09T07:21:12.200Z,35.53
2024-05-09T07:22:16.091Z,35.49
2024-05-09T07:23:19.058Z,35.50
2024-05-09T07:24:21.924Z,35.48
2024-05-09T07:25:26.827Z,35.53
2024-05-09T07:26:29.808Z,35.53
2024-05-09T07:27:33.669Z,35.54
2024-05-09T07:28:36.425Z,35.53
2024-05-09T07:29:40.391Z,35.58
2024-05-09T07:30:44.481Z,35.57
2024-05-09T07:31:47.219Z,35.53
2024-05-09T07:32:49.969Z,35.55
2024-05-09T07:33:54.087Z,35.56
2024-05-09T07:34:57.027Z,35.55
2024-05-09T07:36:01.210Z,35.50
2024-05-09T07:37:06.004Z,35.49
2024-05-09T07:38:08.800Z,35.53
2024-05-09T07:39:12.116Z,35.51
2024-05-09T07:40:24.813Z,35.49
2024-05-09T07:41:20.661Z,35.49
2024-05-09T07:42:24.018Z,35.48
2024-05-09T07:43:27.329Z,35.48
2024-05-09T07:44:30.390Z,35.50
2024-05-09T07:47:47.312Z,35.44
2024-05-09T07:53:00.900Z,35.43
2024-05-09T07:53:37.191Z,35.38
2024-05-09T07:54:16.943Z,35.37
2024-05-09T07:55:22.183Z,35.33
2024-05-09T07:56:27.445Z,35.36
2024-05-09T07:57:31.205Z,35.31
2024-05-09T07:58:34.119Z,35.32
2024-05-09T07:59:38.165Z,35.28
2024-05-09T08:00:41.587Z,35.32
2024-05-09T08:01:45.763Z,35.29
2024-05-09T08:02:48.537Z,35.32
2024-05-09T08:03:51.962Z,35.33
2024-05-09T08:04:54.855Z,35.32
2024-05-09T08:05:57.633Z,35.31
2024-05-09T08:07:00.649Z,35.32
2024-05-09T08:08:04.415Z,35.33
2024-05-09T08:09:11.008Z,35.38
2024-05-09T08:10:18.726Z,35.36
2024-05-09T08:11:19.982Z,35.32
2024-05-09T08:12:23.984Z,35.33
2024-05-09T08:13:27.278Z,35.34
2024-05-09T08:14:31.306Z,35.38
2024-05-09T08:15:34.020Z,35.35
2024-05-09T08:16:37.199Z,35.40
2024-05-09T08:17:40.511Z,35.44
2024-05-09T08:18:44.731Z,35.41
2024-05-09T08:19:48.867Z,35.35
2024-05-09T08:20:51.711Z,35.38
2024-05-09T08:21:54.347Z,35.32
2024-05-09T08:22:57.943Z,35.24
2024-05-09T08:24:01.887Z,35.28
2024-05-09T08:25:05.389Z,35.26
2024-05-09T08:26:09.680Z,35.25
2024-05-09T08:27:12.392Z,35.29
2024-05-09T08:28:15.149Z,35.24
2024-05-09T08:29:18.177Z,35.23
2024-05-09T08:30:29.053Z,35.21
2024-05-09T08:31:25.906Z,35.20
2024-05-09T08:32:31.971Z,35.20
2024-05-09T08:33:35.251Z,35.17
2024-05-09T08:34:40.001Z,35.15
2024-05-09T08:35:42.560Z,35.15
2024-05-09T08:36:45.503Z,35.13
2024-05-09T08:37:49.394Z,35.11
2024-05-09T08:38:52.230Z,35.16
2024-05-09T08:39:55.900Z,35.15
2024-05-09T08:40:59.819Z,35.12
2024-05-09T08:42:02.882Z,35.11
2024-05-09T08:43:08.264Z,35.07
2024-05-09T08:44:11.811Z,35.04
2024-05-09T08:45:14.949Z,35.07
2024-05-09T08:46:18.515Z,35.10
2024-05-09T08:47:21.654Z,35.07
2024-05-09T08:48:25.811Z,35.07
2024-05-09T08:49:30.265Z,35.07
2024-05-09T08:50:38.827Z,35.05
2024-05-09T08:51:38.999Z,35.03
2024-05-09T08:52:42.500Z,34.99
2024-05-09T08:53:45.482Z,35.05
2024-05-09T08:54:49.936Z,35.05
2024-05-09T08:55:53.345Z,35.05
2024-05-09T08:56:57.043Z,35.06
2024-05-09T08:58:00.793Z,35.04
2024-05-09T08:59:03.456Z,35.09
2024-05-09T09:00:12.537Z,35.15
2024-05-09T09:01:13.089Z,35.16
2024-05-09T09:02:17.134Z,35.17
2024-05-09T09:03:22.193Z,35.24
2024-05-09T09:04:24.978Z,35.27
2024-05-09T09:05:30.425Z,35.33
2024-05-09T09:06:33.417Z,35.32
2024-05-09T09:07:39.628Z,35.30
2024-05-09T09:08:43.412Z,35.27
2024-05-09T09:09:46.599Z,35.30
2024-05-09T09:10:51.467Z,35.30
2024-05-09T09:11:55.010Z,35.25
2024-05-09T09:12:58.908Z,35.22
2024-05-09T09:14:01.581Z,35.25
2024-05-09T09:15:05.289Z,35.23
2024-05-09T09:16:09.083Z,35.23
2024-05-09T09:17:15.961Z,35.25
2024-05-09T09:18:19.453Z,35.21
2024-05-09T09:19:22.818Z,35.21
2024-05-09T09:20:34.087Z,35.18
2024-05-09T09:21:31.232Z,35.17
2024-05-09T09:22:34.688Z,35.19
2024-05-09T09:23:41.101Z,35.16
2024-05-09T09:24:44.090Z,35.15
2024-05-09T09:25:46.919Z,35.12
2024-05-09T09:26:49.622Z,35.13
2024-05-09T09:27:52.317Z,35.13
2024-05-09T09:29:02.797Z,35.08
2024-05-09T09:30:15.600Z,35.07
2024-05-09T09:31:12.956Z,35.07
2024-05-09T09:32:15.718Z,35.11
2024-05-09T09:33:19.924Z,35.07
2024-05-09T09:34:29.193Z,35.07
2024-05-09T09:35:32.298Z,35.04
2024-05-09T09:36:35.805Z,35.02
2024-05-09T09:37:38.505Z,34.98
2024-05-09T09:38:42.980Z,35.02
2024-05-09T09:39:48.890Z,35.05
2024-05-09T09:40:50.831Z,35.02
2024-05-09T09:41:55.963Z,34.99
2024-05-09T09:42:58.815Z,34.98
2024-05-09T09:44:02.048Z,34.96
2024-05-09T09:45:05.981Z,34.99
2024-05-09T09:46:12.332Z,34.99
2024-05-09T09:47:13.640Z,34.96
2024-05-09T09:48:17.467Z,34.88
2024-05-09T09:49:20.294Z,34.88
2024-05-09T09:50:31.710Z,34.96
2024-05-09T09:51:28.581Z,34.96
2024-05-09T09:52:31.671Z,34.95
2024-05-09T09:53:35.006Z,34.98
2024-05-09T09:54:37.816Z,34.98
2024-05-09T09:55:40.857Z,35.02
2024-05-09T09:56:49.011Z,35.02
2024-05-09T09:57:52.523Z,35.01
2024-05-09T09:58:55.526Z,34.98
2024-05-09T09:59:58.376Z,34.96
2024-05-09T10:01:02.278Z,34.99
2024-05-09T10:02:08.050Z,34.96
2024-05-09T10:03:11.934Z,34.96
2024-05-09T10:04:17.262Z,34.96
2024-05-09T10:05:20.802Z,34.93
2024-05-09T10:06:23.759Z,34.90
2024-05-09T10:07:27.778Z,34.77
2024-05-09T10:08:30.429Z,34.77
2024-05-09T10:09:34.049Z,34.75
2024-05-09T10:10:37.329Z,34.73
2024-05-09T10:11:45.386Z,34.70
2024-05-09T10:12:48.814Z,34.63
2024-05-09T10:13:54.432Z,34.59
2024-05-09T10:14:57.623Z,34.53
2024-05-09T10:16:04.272Z,34.47
2024-05-09T10:17:07.026Z,34.43
2024-05-09T10:18:11.274Z,34.36
2024-05-09T10:19:27.325Z,34.36
2024-05-09T10:20:43.536Z,34.30
2024-05-09T10:21:47.556Z,34.22
2024-05-09T10:22:50.307Z,34.20
2024-05-09T10:23:59.137Z,34.13
2024-05-09T10:25:06.626Z,34.09
2024-05-09T10:26:09.506Z,34.03
2024-05-09T10:27:12.418Z,34.03
2024-05-09T10:28:15.422Z,34.02
2024-05-09T10:29:18.948Z,33.93
2024-05-09T10:30:29.813Z,33.86
2024-05-09T10:31:29.006Z,33.86
2024-05-09T10:32:39.869Z,34.13
2024-05-09T10:33:49.953Z,34.13
2024-05-09T10:35:11.637Z,33.96
2024-05-09T10:36:22.069Z,34.00
2024-05-09T10:37:28.803Z,33.94
2024-05-09T10:38:31.761Z,33.82
2024-05-09T10:39:35.451Z,33.69
2024-05-09T10:40:38.373Z,33.65
2024-05-09T10:41:41.830Z,33.57
2024-05-09T10:42:45.049Z,33.41
2024-05-09T10:43:47.820Z,33.25
2024-05-09T10:44:52.618Z,33.14
2024-05-09T10:45:55.776Z,33.03
2024-05-09T10:46:58.648Z,32.93
2024-05-09T10:48:01.617Z,32.94
2024-05-09T10:49:07.269Z,32.91
2024-05-09T10:50:18.360Z,32.92
2024-05-09T10:51:14.335Z,33.19
2024-05-09T10:52:21.499Z,33.15
2024-05-09T10:53:24.069Z,33.28
2024-05-09T10:54:38.472Z,33.18
2024-05-09T10:55:42.024Z,33.03
2024-05-09T10:56:44.803Z,33.23
2024-05-09T10:57:47.646Z,33.21
2024-05-09T10:58:51.494Z,33.04
2024-05-09T10:59:55.228Z,32.79
2024-05-09T11:00:59.688Z,32.48
2024-05-09T11:02:04.376Z,32.30
2024-05-09T11:03:09.816Z,32.25
2024-05-09T11:04:13.296Z,32.54
2024-05-09T11:05:16.829Z,32.86
2024-05-09T11:06:20.932Z,33.15
2024-05-09T11:07:23.750Z,33.06
2024-05-09T11:08:26.619Z,32.98
2024-05-09T11:09:31.594Z,33.00
2024-05-09T11:10:34.957Z,32.98
2024-05-09T11:11:38.069Z,32.84
2024-05-09T11:12:46.460Z,32.63
2024-05-09T11:13:49.393Z,32.64
2024-05-09T11:14:56.061Z,32.50
2024-05-09T11:15:59.566Z,32.32
2024-05-09T11:17:05.491Z,32.44
2024-05-09T11:18:13.458Z,32.23
2024-05-09T11:19:19.407Z,32.31
2024-05-09T11:20:29.321Z,32.13
2024-05-09T11:21:28.705Z,31.99
2024-05-09T11:22:34.388Z,32.08
2024-05-09T11:23:39.442Z,31.93
2024-05-09T11:24:42.397Z,31.86
2024-05-09T11:25:52.227Z,31.68
2024-05-09T11:26:59.322Z,31.58
2024-05-09T11:28:04.718Z,31.51
2024-05-09T11:29:07.473Z,31.52
2024-05-09T11:30:26.789Z,31.45
2024-05-09T11:31:24.409Z,31.41
2024-05-09T11:32:28.675Z,31.37
2024-05-09T11:33:32.362Z,31.34
2024-05-09T11:34:36.287Z,31.29
2024-05-09T11:35:38.922Z,31.30
2024-05-09T11:36:42.685Z,31.34
2024-05-09T11:37:47.103Z,31.35
2024-05-09T11:38:49.872Z,31.41
2024-05-09T11:39:59.149Z,31.44
2024-05-09T11:41:02.691Z,31.46
2024-05-09T11:42:05.570Z,31.45
2024-05-09T11:43:09.180Z,31.34
2024-05-09T11:44:12.584Z,31.33
2024-05-09T11:45:16.064Z,31.39
2024-05-09T11:46:19.392Z,31.36
2024-05-09T11:47:22.123Z,31.52
2024-05-09T11:48:25.467Z,31.00
2024-05-09T11:49:28.359Z,30.75
2024-05-09T11:50:35.432Z,30.68
2024-05-09T11:51:36.398Z,30.79
2024-05-09T11:52:41.766Z,30.59
2024-05-09T11:53:45.009Z,31.11
2024-05-09T11:54:47.834Z,31.03
2024-05-09T11:55:50.449Z,31.08
2024-05-09T11:56:55.200Z,31.28
2024-05-09T11:57:58.316Z,30.90
2024-05-09T11:59:01.779Z,30.60
2024-05-09T12:00:09.412Z,30.12
2024-05-09T12:01:11.254Z,29.82
2024-05-09T12:02:13.940Z,29.75
2024-05-09T12:03:16.956Z,30.04
2024-05-09T12:04:19.706Z,30.32
2024-05-09T12:05:23.121Z,30.34
2024-05-09T12:06:26.967Z,30.58
2024-05-09T12:07:30.104Z,30.64
2024-05-09T12:08:33.936Z,30.44
2024-05-09T12:09:36.470Z,30.47
2024-05-09T12:10:39.532Z,30.56
2024-05-09T12:11:43.152Z,30.54
2024-05-09T12:12:46.354Z,30.47
2024-05-09T12:13:49.126Z,30.50
2024-05-09T12:14:52.775Z,30.56
2024-05-09T12:15:56.892Z,30.42
2024-05-09T12:17:01.342Z,30.47
2024-05-09T12:18:06.262Z,30.52
2024-05-09T12:19:10.646Z,30.19
2024-05-09T12:20:21.307Z,30.12
2024-05-09T12:21:19.566Z,29.95
2024-05-09T12:22:22.326Z,29.87
2024-05-09T12:23:25.106Z,29.90
2024-05-09T12:24:29.893Z,30.21
2024-05-09T12:25:35.716Z,30.18
2024-05-09T12:26:38.434Z,29.79
2024-05-09T12:27:41.016Z,29.16
2024-05-09T12:28:43.883Z,29.12
2024-05-09T12:29:47.797Z,28.67
2024-05-09T12:30:51.332Z,28.67
2024-05-09T12:31:55.446Z,28.36
2024-05-09T12:32:59.746Z,28.34
2024-05-09T12:34:02.505Z,28.88
2024-05-09T12:35:05.295Z,29.24
2024-05-09T12:36:08.809Z,29.41
2024-05-09T12:37:11.576Z,29.27
2024-05-09T12:38:14.287Z,29.50
2024-05-09T12:39:16.908Z,29.28
2024-05-09T12:40:26.793Z,28.76
2024-05-09T12:41:24.822Z,28.42
2024-05-09T12:42:29.485Z,28.33
2024-05-09T12:43:33.080Z,28.88
2024-05-09T12:44:36.303Z,28.39
2024-05-09T12:45:39.804Z,27.84
2024-05-09T12:46:42.951Z,27.92
2024-05-09T12:47:45.706Z,27.66
2024-05-09T12:48:49.308Z,27.56
2024-05-09T12:49:52.332Z,27.66
2024-05-09T12:50:56.876Z,27.92
2024-05-09T12:52:00.085Z,27.68
2024-05-09T12:53:04.383Z,27.78
2024-05-09T12:54:07.868Z,28.00
2024-05-09T12:55:14.091Z,28.18
2024-05-09T12:56:16.906Z,28.15
2024-05-09T12:57:21.500Z,28.17
2024-05-09T12:58:25.324Z,28.18
2024-05-09T12:59:29.330Z,28.07
2024-05-09T13:00:34.243Z,28.03
2024-05-09T13:01:37.332Z,27.97
2024-05-09T13:02:41.869Z,27.82
2024-05-09T13:03:44.866Z,27.71
2024-05-09T13:04:48.178Z,27.76
2024-05-09T13:05:51.265Z,27.83
2024-05-09T13:06:54.782Z,27.88
2024-05-09T13:07:58.690Z,27.86
2024-05-09T13:09:02.679Z,27.85
2024-05-09T13:10:11.796Z,27.87
2024-05-09T13:11:12.389Z,27.96
2024-05-09T13:12:15.769Z,27.99
2024-05-09T13:13:18.662Z,27.99
2024-05-09T13:14:21.520Z,27.93
2024-05-09T13:15:24.219Z,27.95
2024-05-09T13:16:27.073Z,27.98
2024-05-09T13:17:29.840Z,28.01
2024-05-09T13:18:35.799Z,28.04
2024-05-09T13:19:38.422Z,28.07
2024-05-09T13:20:41.556Z,28.07
2024-05-09T13:21:44.285Z,28.07
2024-05-09T13:22:48.010Z,27.80
2024-05-09T13:23:50.780Z,27.80
2024-05-09T13:24:53.468Z,27.93
2024-05-09T13:25:56.432Z,27.86
2024-05-09T13:26:59.138Z,27.86
2024-05-09T13:28:06.349Z,27.81
2024-05-09T13:29:09.460Z,27.76
2024-05-09T13:30:17.957Z,27.41
2024-05-09T13:31:19.252Z,27.41
2024-05-09T13:32:23.243Z,27.18
2024-05-09T13:33:26.367Z,27.11
2024-05-09T13:34:29.185Z,27.04
2024-05-09T13:35:33.555Z,27.08
2024-05-09T13:36:36.525Z,26.89
2024-05-09T13:37:39.180Z,26.89
2024-05-09T13:38:42.468Z,26.77
2024-05-09T13:39:45.836Z,26.66
2024-05-09T13:40:50.246Z,26.64
2024-05-09T13:41:53.448Z,26.66
2024-05-09T13:42:56.695Z,26.63
2024-05-09T13:44:01.369Z,26.66
2024-05-09T13:45:04.792Z,26.66
2024-05-09T13:46:07.828Z,26.74
2024-05-09T13:47:12.265Z,26.81
2024-05-09T13:48:15.881Z,26.82